sensor_id;sensor_type;location;lat;lon;timestamp;P1;durP1;ratioP1;P2;durP2;ratioP2
60873;SDS011;46715;40.642;-7.920;2023-12-04T00:01:05;3.37;;;2.53;;
60873;SDS011;46715;40.642;-7.920;2023-12-04T00:03:06;3.20;;;2.03;;
60873;SDS011;46715;40.642;-7.920;2023-12-04T00:05:07;5.23;;;2.70;;
60873;SDS011;46715;40.642;-7.920;2023-12-04T00:07:08;4.68;;;2.92;;
60873;SDS011;46715;40.642;-7.920;2023-12-04T00:09:09;4.77;;;2.50;;
60873;SDS011;46715;40.642;-7.920;2023-12-04T00:11:10;3.33;;;2.40;;
60873;SDS011;46715;40.642;-7.920;2023-12-04T00:13:11;3.07;;;2.47;;
60873;SDS011;46715;40.642;-7.920;2023-12-04T00:15:11;3.83;;;2.67;;
60873;SDS011;46715;40.642;-7.920;2023-12-04T00:17:12;6.40;;;3.80;;
60873;SDS011;46715;40.642;-7.920;2023-12-04T00:19:13;3.10;;;2.30;;
60873;SDS011;46715;40.642;-7.920;2023-12-04T00:21:14;7.23;;;3.10;;
60873;SDS011;46715;40.642;-7.920;2023-12-04T00:23:15;4.63;;;3.43;;
60873;SDS011;46715;40.642;-7.920;2023-12-04T00:25:15;4.47;;;3.70;;
60873;SDS011;46715;40.642;-7.920;2023-12-04T00:27:16;4.07;;;2.77;;
60873;SDS011;46715;40.642;-7.920;2023-12-04T00:29:17;6.33;;;3.50;;
60873;SDS011;46715;40.642;-7.920;2023-12-04T00:31:18;6.90;;;3.30;;
60873;SDS011;46715;40.642;-7.920;2023-12-04T00:33:18;4.27;;;3.23;;
60873;SDS011;46715;40.642;-7.920;2023-12-04T00:35:19;5.47;;;3.07;;
60873;SDS011;46715;40.642;-7.920;2023-12-04T00:37:20;5.63;;;3.23;;
60873;SDS011;46715;40.642;-7.920;2023-12-04T00:39:21;9.47;;;4.03;;
60873;SDS011;46715;40.642;-7.920;2023-12-04T00:41:21;6.40;;;4.10;;
60873;SDS011;46715;40.642;-7.920;2023-12-04T00:43:22;10.23;;;3.80;;
60873;SDS011;46715;40.642;-7.920;2023-12-04T00:45:23;4.87;;;3.00;;
60873;SDS011;46715;40.642;-7.920;2023-12-04T00:47:24;4.05;;;2.60;;
60873;SDS011;46715;40.642;-7.920;2023-12-04T00:49:25;3.93;;;2.73;;
60873;SDS011;46715;40.642;-7.920;2023-12-04T00:51:26;35.13;;;5.00;;
60873;SDS011;46715;40.642;-7.920;2023-12-04T00:53:26;16.67;;;4.37;;
60873;SDS011;46715;40.642;-7.920;2023-12-04T00:55:27;7.83;;;3.70;;
60873;SDS011;46715;40.642;-7.920;2023-12-04T00:57:28;75.57;;;7.60;;
60873;SDS011;46715;40.642;-7.920;2023-12-04T00:59:29;179.53;;;13.60;;
60873;SDS011;46715;40.642;-7.920;2023-12-04T01:01:29;174.77;;;13.83;;
60873;SDS011;46715;40.642;-7.920;2023-12-04T01:03:30;64.20;;;6.53;;
60873;SDS011;46715;40.642;-7.920;2023-12-04T01:05:33;15.13;;;4.22;;
60873;SDS011;46715;40.642;-7.920;2023-12-04T01:07:34;8.70;;;4.28;;
60873;SDS011;46715;40.642;-7.920;2023-12-04T01:09:35;14.17;;;7.13;;
60873;SDS011;46715;40.642;-7.920;2023-12-04T01:11:36;12.73;;;4.30;;
60873;SDS011;46715;40.642;-7.920;2023-12-04T01:13:37;29.93;;;5.83;;
60873;SDS011;46715;40.642;-7.920;2023-12-04T01:15:38;19.83;;;5.10;;
60873;SDS011;46715;40.642;-7.920;2023-12-04T01:17:39;17.90;;;4.32;;
60873;SDS011;46715;40.642;-7.920;2023-12-04T01:19:40;19.70;;;5.07;;
60873;SDS011;46715;40.642;-7.920;2023-12-04T01:21:40;39.97;;;5.03;;
60873;SDS011;46715;40.642;-7.920;2023-12-04T01:23:42;84.07;;;9.48;;
60873;SDS011;46715;40.642;-7.920;2023-12-04T01:25:43;253.33;;;17.13;;
60873;SDS011;46715;40.642;-7.920;2023-12-04T01:29:45;602.15;;;47.97;;
60873;SDS011;46715;40.642;-7.920;2023-12-04T01:31:46;354.47;;;25.27;;
60873;SDS011;46715;40.642;-7.920;2023-12-04T01:33:47;287.40;;;21.13;;
60873;SDS011;46715;40.642;-7.920;2023-12-04T01:35:48;302.63;;;21.33;;
60873;SDS011;46715;40.642;-7.920;2023-12-04T01:37:48;501.17;;;34.00;;
60873;SDS011;46715;40.642;-7.920;2023-12-04T01:39:49;496.97;;;39.13;;
60873;SDS011;46715;40.642;-7.920;2023-12-04T01:41:50;579.30;;;39.63;;
60873;SDS011;46715;40.642;-7.920;2023-12-04T01:43:51;447.40;;;28.23;;
60873;SDS011;46715;40.642;-7.920;2023-12-04T01:45:51;612.93;;;46.77;;
60873;SDS011;46715;40.642;-7.920;2023-12-04T01:47:53;434.27;;;27.77;;
60873;SDS011;46715;40.642;-7.920;2023-12-04T01:49:54;597.83;;;42.77;;
60873;SDS011;46715;40.642;-7.920;2023-12-04T01:51:55;568.50;;;39.47;;
60873;SDS011;46715;40.642;-7.920;2023-12-04T01:58:00;490.17;;;32.33;;
60873;SDS011;46715;40.642;-7.920;2023-12-04T02:00:03;608.75;;;44.45;;
60873;SDS011;46715;40.642;-7.920;2023-12-04T02:02:11;602.33;;;40.20;;
60873;SDS011;46715;40.642;-7.920;2023-12-04T02:04:13;414.13;;;29.77;;
60873;SDS011;46715;40.642;-7.920;2023-12-04T02:06:14;471.87;;;33.80;;
60873;SDS011;46715;40.642;-7.920;2023-12-04T02:08:17;572.35;;;37.40;;
60873;SDS011;46715;40.642;-7.920;2023-12-04T02:10:19;519.13;;;34.88;;
60873;SDS011;46715;40.642;-7.920;2023-12-04T02:12:20;513.72;;;33.40;;
60873;SDS011;46715;40.642;-7.920;2023-12-04T02:14:21;381.98;;;25.42;;
60873;SDS011;46715;40.642;-7.920;2023-12-04T02:16:22;498.50;;;33.60;;
60873;SDS011;46715;40.642;-7.920;2023-12-04T02:18:27;574.58;;;37.35;;
60873;SDS011;46715;40.642;-7.920;2023-12-04T02:20:32;441.80;;;31.83;;
60873;SDS011;46715;40.642;-7.920;2023-12-04T02:22:33;405.48;;;25.50;;
60873;SDS011;46715;40.642;-7.920;2023-12-04T02:24:34;445.63;;;30.00;;
60873;SDS011;46715;40.642;-7.920;2023-12-04T02:26:39;482.40;;;33.45;;
60873;SDS011;46715;40.642;-7.920;2023-12-04T02:28:46;296.42;;;17.75;;
60873;SDS011;46715;40.642;-7.920;2023-12-04T02:30:54;126.43;;;8.00;;
60873;SDS011;46715;40.642;-7.920;2023-12-04T02:32:58;2.80;;;1.50;;
60873;SDS011;46715;40.642;-7.920;2023-12-04T02:35:00;5.70;;;1.70;;
60873;SDS011;46715;40.642;-7.920;2023-12-04T02:37:05;3.25;;;1.73;;
60873;SDS011;46715;40.642;-7.920;2023-12-04T02:39:07;6.40;;;1.73;;
60873;SDS011;46715;40.642;-7.920;2023-12-04T02:41:08;6.43;;;2.10;;
60873;SDS011;46715;40.642;-7.920;2023-12-04T02:43:09;6.30;;;1.60;;
60873;SDS011;46715;40.642;-7.920;2023-12-04T02:45:10;4.90;;;1.87;;
60873;SDS011;46715;40.642;-7.920;2023-12-04T02:47:11;7.83;;;1.77;;
60873;SDS011;46715;40.642;-7.920;2023-12-04T02:49:12;6.53;;;1.88;;
60873;SDS011;46715;40.642;-7.920;2023-12-04T02:51:13;9.53;;;2.33;;
60873;SDS011;46715;40.642;-7.920;2023-12-04T02:53:13;8.57;;;2.20;;
60873;SDS011;46715;40.642;-7.920;2023-12-04T02:55:14;5.10;;;2.07;;
60873;SDS011;46715;40.642;-7.920;2023-12-04T02:57:15;12.00;;;2.43;;
60873;SDS011;46715;40.642;-7.920;2023-12-04T02:59:16;4.93;;;2.10;;
60873;SDS011;46715;40.642;-7.920;2023-12-04T03:01:16;5.97;;;1.70;;
60873;SDS011;46715;40.642;-7.920;2023-12-04T03:03:17;8.30;;;2.80;;
60873;SDS011;46715;40.642;-7.920;2023-12-04T03:05:19;8.03;;;1.90;;
60873;SDS011;46715;40.642;-7.920;2023-12-04T03:07:19;13.35;;;2.15;;
60873;SDS011;46715;40.642;-7.920;2023-12-04T03:11:22;5.85;;;2.10;;
60873;SDS011;46715;40.642;-7.920;2023-12-04T03:13:23;10.13;;;1.93;;
60873;SDS011;46715;40.642;-7.920;2023-12-04T03:15:24;3.13;;;1.80;;
60873;SDS011;46715;40.642;-7.920;2023-12-04T03:17:25;4.40;;;1.80;;
60873;SDS011;46715;40.642;-7.920;2023-12-04T03:19:25;13.20;;;2.07;;
60873;SDS011;46715;40.642;-7.920;2023-12-04T03:21:26;4.57;;;1.80;;
60873;SDS011;46715;40.642;-7.920;2023-12-04T03:23:29;5.75;;;1.80;;
60873;SDS011;46715;40.642;-7.920;2023-12-04T03:25:29;9.37;;;1.90;;
60873;SDS011;46715;40.642;-7.920;2023-12-04T03:27:30;12.60;;;2.50;;
60873;SDS011;46715;40.642;-7.920;2023-12-04T03:29:31;14.37;;;2.30;;
60873;SDS011;46715;40.642;-7.920;2023-12-04T03:31:32;29.80;;;2.67;;
60873;SDS011;46715;40.642;-7.920;2023-12-04T03:33:34;6.15;;;2.40;;
60873;SDS011;46715;40.642;-7.920;2023-12-04T03:35:35;7.30;;;2.47;;
60873;SDS011;46715;40.642;-7.920;2023-12-04T03:37:36;6.20;;;1.77;;
60873;SDS011;46715;40.642;-7.920;2023-12-04T03:39:37;11.90;;;1.77;;
60873;SDS011;46715;40.642;-7.920;2023-12-04T03:41:38;7.73;;;1.87;;
60873;SDS011;46715;40.642;-7.920;2023-12-04T03:43:39;7.13;;;1.60;;
60873;SDS011;46715;40.642;-7.920;2023-12-04T03:45:39;9.40;;;1.90;;
60873;SDS011;46715;40.642;-7.920;2023-12-04T03:47:40;5.97;;;1.80;;
60873;SDS011;46715;40.642;-7.920;2023-12-04T03:49:41;6.40;;;1.97;;
60873;SDS011;46715;40.642;-7.920;2023-12-04T03:51:42;3.33;;;1.73;;
60873;SDS011;46715;40.642;-7.920;2023-12-04T03:53:42;6.30;;;2.23;;
60873;SDS011;46715;40.642;-7.920;2023-12-04T03:55:43;5.60;;;1.60;;
60873;SDS011;46715;40.642;-7.920;2023-12-04T03:57:44;5.87;;;2.17;;
60873;SDS011;46715;40.642;-7.920;2023-12-04T03:59:45;7.68;;;1.88;;
60873;SDS011;46715;40.642;-7.920;2023-12-04T04:01:46;6.83;;;1.90;;
60873;SDS011;46715;40.642;-7.920;2023-12-04T04:03:46;4.93;;;1.90;;
60873;SDS011;46715;40.642;-7.920;2023-12-04T04:05:47;4.53;;;1.83;;
60873;SDS011;46715;40.642;-7.920;2023-12-04T04:07:48;11.67;;;2.20;;
60873;SDS011;46715;40.642;-7.920;2023-12-04T04:09:49;6.90;;;1.80;;
60873;SDS011;46715;40.642;-7.920;2023-12-04T04:11:50;7.87;;;1.50;;
60873;SDS011;46715;40.642;-7.920;2023-12-04T04:13:50;6.57;;;1.67;;
60873;SDS011;46715;40.642;-7.920;2023-12-04T04:15:51;8.73;;;2.20;;
60873;SDS011;46715;40.642;-7.920;2023-12-04T04:17:52;6.03;;;1.77;;
60873;SDS011;46715;40.642;-7.920;2023-12-04T04:19:53;6.97;;;1.90;;
60873;SDS011;46715;40.642;-7.920;2023-12-04T04:21:54;12.50;;;2.55;;
60873;SDS011;46715;40.642;-7.920;2023-12-04T04:23:55;67.37;;;6.30;;
60873;SDS011;46715;40.642;-7.920;2023-12-04T04:25:55;59.03;;;5.63;;
60873;SDS011;46715;40.642;-7.920;2023-12-04T04:27:56;186.10;;;11.60;;
60873;SDS011;46715;40.642;-7.920;2023-12-04T04:29:57;113.33;;;9.00;;
60873;SDS011;46715;40.642;-7.920;2023-12-04T04:31:58;156.90;;;9.67;;
60873;SDS011;46715;40.642;-7.920;2023-12-04T04:33:58;140.10;;;10.43;;
60873;SDS011;46715;40.642;-7.920;2023-12-04T04:35:59;163.33;;;10.80;;
60873;SDS011;46715;40.642;-7.920;2023-12-04T04:38:00;84.63;;;6.47;;
60873;SDS011;46715;40.642;-7.920;2023-12-04T04:40:01;114.43;;;7.30;;
60873;SDS011;46715;40.642;-7.920;2023-12-04T04:42:02;92.43;;;6.07;;
60873;SDS011;46715;40.642;-7.920;2023-12-04T04:44:03;107.77;;;8.77;;
60873;SDS011;46715;40.642;-7.920;2023-12-04T04:46:03;130.20;;;8.87;;
60873;SDS011;46715;40.642;-7.920;2023-12-04T04:48:05;76.70;;;7.17;;
60873;SDS011;46715;40.642;-7.920;2023-12-04T04:50:06;94.00;;;7.77;;
60873;SDS011;46715;40.642;-7.920;2023-12-04T04:52:07;106.35;;;7.15;;
60873;SDS011;46715;40.642;-7.920;2023-12-04T04:54:07;50.33;;;5.00;;
60873;SDS011;46715;40.642;-7.920;2023-12-04T04:56:08;60.50;;;6.70;;
60873;SDS011;46715;40.642;-7.920;2023-12-04T04:58:09;47.13;;;6.30;;
60873;SDS011;46715;40.642;-7.920;2023-12-04T05:00:11;12.23;;;2.60;;
60873;SDS011;46715;40.642;-7.920;2023-12-04T05:02:12;12.90;;;3.45;;
60873;SDS011;46715;40.642;-7.920;2023-12-04T05:04:12;37.97;;;4.83;;
60873;SDS011;46715;40.642;-7.920;2023-12-04T05:06:13;17.07;;;4.13;;
60873;SDS011;46715;40.642;-7.920;2023-12-04T05:08:14;11.73;;;3.47;;
60873;SDS011;46715;40.642;-7.920;2023-12-04T05:10:15;10.97;;;3.73;;
60873;SDS011;46715;40.642;-7.920;2023-12-04T05:12:16;17.23;;;2.90;;
60873;SDS011;46715;40.642;-7.920;2023-12-04T05:14:17;21.43;;;3.47;;
60873;SDS011;46715;40.642;-7.920;2023-12-04T05:16:18;12.93;;;2.77;;
60873;SDS011;46715;40.642;-7.920;2023-12-04T05:18:18;13.67;;;2.40;;
60873;SDS011;46715;40.642;-7.920;2023-12-04T05:20:25;14.45;;;3.25;;
60873;SDS011;46715;40.642;-7.920;2023-12-04T05:22:26;14.53;;;3.10;;
60873;SDS011;46715;40.642;-7.920;2023-12-04T05:24:27;10.13;;;2.53;;
60873;SDS011;46715;40.642;-7.920;2023-12-04T05:26:28;20.50;;;3.20;;
60873;SDS011;46715;40.642;-7.920;2023-12-04T05:28:28;19.27;;;2.87;;
60873;SDS011;46715;40.642;-7.920;2023-12-04T05:30:29;18.33;;;2.50;;
60873;SDS011;46715;40.642;-7.920;2023-12-04T05:32:46;14.25;;;2.40;;
60873;SDS011;46715;40.642;-7.920;2023-12-04T05:38:08;10.60;;;2.33;;
60873;SDS011;46715;40.642;-7.920;2023-12-04T05:41:10;10.05;;;2.35;;
60873;SDS011;46715;40.642;-7.920;2023-12-04T05:43:22;12.60;;;3.10;;
60873;SDS011;46715;40.642;-7.920;2023-12-04T05:45:25;11.73;;;2.67;;
60873;SDS011;46715;40.642;-7.920;2023-12-04T05:47:26;13.37;;;2.80;;
60873;SDS011;46715;40.642;-7.920;2023-12-04T05:49:26;16.10;;;3.13;;
60873;SDS011;46715;40.642;-7.920;2023-12-04T05:51:29;20.42;;;3.47;;
60873;SDS011;46715;40.642;-7.920;2023-12-04T05:53:30;20.80;;;3.90;;
60873;SDS011;46715;40.642;-7.920;2023-12-04T05:55:31;13.67;;;2.43;;
60873;SDS011;46715;40.642;-7.920;2023-12-04T05:57:31;11.90;;;2.80;;
60873;SDS011;46715;40.642;-7.920;2023-12-04T05:59:32;10.00;;;2.40;;
60873;SDS011;46715;40.642;-7.920;2023-12-04T06:01:33;19.33;;;3.00;;
60873;SDS011;46715;40.642;-7.920;2023-12-04T06:03:33;14.27;;;2.53;;
60873;SDS011;46715;40.642;-7.920;2023-12-04T06:05:34;10.83;;;3.07;;
60873;SDS011;46715;40.642;-7.920;2023-12-04T06:07:35;15.07;;;3.03;;
60873;SDS011;46715;40.642;-7.920;2023-12-04T06:09:37;11.93;;;2.63;;
60873;SDS011;46715;40.642;-7.920;2023-12-04T06:11:38;14.37;;;3.27;;
60873;SDS011;46715;40.642;-7.920;2023-12-04T06:13:39;11.82;;;3.13;;
60873;SDS011;46715;40.642;-7.920;2023-12-04T06:15:40;10.90;;;2.53;;
60873;SDS011;46715;40.642;-7.920;2023-12-04T06:17:40;16.20;;;3.00;;
60873;SDS011;46715;40.642;-7.920;2023-12-04T06:19:41;13.63;;;2.60;;
60873;SDS011;46715;40.642;-7.920;2023-12-04T06:21:42;12.27;;;3.17;;
60873;SDS011;46715;40.642;-7.920;2023-12-04T06:23:43;14.33;;;3.10;;
60873;SDS011;46715;40.642;-7.920;2023-12-04T06:25:45;19.67;;;3.40;;
60873;SDS011;46715;40.642;-7.920;2023-12-04T06:27:46;8.57;;;3.10;;
60873;SDS011;46715;40.642;-7.920;2023-12-04T06:29:47;15.88;;;3.47;;
60873;SDS011;46715;40.642;-7.920;2023-12-04T06:31:49;16.70;;;3.22;;
60873;SDS011;46715;40.642;-7.920;2023-12-04T06:33:50;13.57;;;2.95;;
60873;SDS011;46715;40.642;-7.920;2023-12-04T06:35:51;20.27;;;2.97;;
60873;SDS011;46715;40.642;-7.920;2023-12-04T06:37:53;12.87;;;3.00;;
60873;SDS011;46715;40.642;-7.920;2023-12-04T06:39:55;15.95;;;3.63;;
60873;SDS011;46715;40.642;-7.920;2023-12-04T06:42:02;17.70;;;3.97;;
60873;SDS011;46715;40.642;-7.920;2023-12-04T06:44:03;14.07;;;3.78;;
60873;SDS011;46715;40.642;-7.920;2023-12-04T06:46:04;15.48;;;3.83;;
60873;SDS011;46715;40.642;-7.920;2023-12-04T06:48:06;11.10;;;3.63;;
60873;SDS011;46715;40.642;-7.920;2023-12-04T06:50:09;24.42;;;2.90;;
60873;SDS011;46715;40.642;-7.920;2023-12-04T06:52:10;16.43;;;3.37;;
60873;SDS011;46715;40.642;-7.920;2023-12-04T06:54:11;31.33;;;3.50;;
60873;SDS011;46715;40.642;-7.920;2023-12-04T06:56:13;19.88;;;3.70;;
60873;SDS011;46715;40.642;-7.920;2023-12-04T06:58:15;22.42;;;3.33;;
60873;SDS011;46715;40.642;-7.920;2023-12-04T07:00:16;21.50;;;3.47;;
60873;SDS011;46715;40.642;-7.920;2023-12-04T07:02:17;15.93;;;2.95;;
60873;SDS011;46715;40.642;-7.920;2023-12-04T07:04:17;18.43;;;3.53;;
60873;SDS011;46715;40.642;-7.920;2023-12-04T07:06:21;23.27;;;3.75;;
60873;SDS011;46715;40.642;-7.920;2023-12-04T07:08:22;20.77;;;3.57;;
60873;SDS011;46715;40.642;-7.920;2023-12-04T07:10:22;27.47;;;4.20;;
60873;SDS011;46715;40.642;-7.920;2023-12-04T07:12:24;23.77;;;3.78;;
60873;SDS011;46715;40.642;-7.920;2023-12-04T07:14:25;23.40;;;3.37;;
60873;SDS011;46715;40.642;-7.920;2023-12-04T07:16:25;18.60;;;3.57;;
60873;SDS011;46715;40.642;-7.920;2023-12-04T07:18:26;28.60;;;3.67;;
60873;SDS011;46715;40.642;-7.920;2023-12-04T07:20:27;17.57;;;4.07;;
60873;SDS011;46715;40.642;-7.920;2023-12-04T07:22:31;23.13;;;4.07;;
60873;SDS011;46715;40.642;-7.920;2023-12-04T07:24:33;18.67;;;3.90;;
60873;SDS011;46715;40.642;-7.920;2023-12-04T07:26:34;17.37;;;3.63;;
60873;SDS011;46715;40.642;-7.920;2023-12-04T07:28:35;19.02;;;3.40;;
60873;SDS011;46715;40.642;-7.920;2023-12-04T07:30:36;23.97;;;4.27;;
60873;SDS011;46715;40.642;-7.920;2023-12-04T07:32:37;18.15;;;3.67;;
60873;SDS011;46715;40.642;-7.920;2023-12-04T07:34:38;19.43;;;3.83;;
60873;SDS011;46715;40.642;-7.920;2023-12-04T07:36:39;20.90;;;3.40;;
60873;SDS011;46715;40.642;-7.920;2023-12-04T07:38:40;13.50;;;2.93;;
60873;SDS011;46715;40.642;-7.920;2023-12-04T07:40:40;25.73;;;3.50;;
60873;SDS011;46715;40.642;-7.920;2023-12-04T07:42:41;18.57;;;3.20;;
60873;SDS011;46715;40.642;-7.920;2023-12-04T07:44:43;14.65;;;2.88;;
60873;SDS011;46715;40.642;-7.920;2023-12-04T07:46:43;26.90;;;3.43;;
60873;SDS011;46715;40.642;-7.920;2023-12-04T07:48:44;15.93;;;2.77;;
60873;SDS011;46715;40.642;-7.920;2023-12-04T07:50:45;30.05;;;3.78;;
60873;SDS011;46715;40.642;-7.920;2023-12-04T07:52:46;14.80;;;3.67;;
60873;SDS011;46715;40.642;-7.920;2023-12-04T07:54:47;19.47;;;3.73;;
60873;SDS011;46715;40.642;-7.920;2023-12-04T07:56:48;22.23;;;3.90;;
60873;SDS011;46715;40.642;-7.920;2023-12-04T07:58:48;22.37;;;3.80;;
60873;SDS011;46715;40.642;-7.920;2023-12-04T08:00:49;23.55;;;2.35;;
60873;SDS011;46715;40.642;-7.920;2023-12-04T08:02:50;21.57;;;3.37;;
60873;SDS011;46715;40.642;-7.920;2023-12-04T08:04:51;38.23;;;3.60;;
60873;SDS011;46715;40.642;-7.920;2023-12-04T08:06:52;15.10;;;2.90;;
60873;SDS011;46715;40.642;-7.920;2023-12-04T08:08:53;11.47;;;2.73;;
60873;SDS011;46715;40.642;-7.920;2023-12-04T08:10:54;12.68;;;3.50;;
60873;SDS011;46715;40.642;-7.920;2023-12-04T08:12:55;10.33;;;2.60;;
60873;SDS011;46715;40.642;-7.920;2023-12-04T08:14:56;15.47;;;2.93;;
60873;SDS011;46715;40.642;-7.920;2023-12-04T08:16:57;12.80;;;3.23;;
60873;SDS011;46715;40.642;-7.920;2023-12-04T08:18:58;19.23;;;3.43;;
60873;SDS011;46715;40.642;-7.920;2023-12-04T08:21:00;16.57;;;2.90;;
60873;SDS011;46715;40.642;-7.920;2023-12-04T08:23:01;10.35;;;3.08;;
60873;SDS011;46715;40.642;-7.920;2023-12-04T08:27:04;8.88;;;2.67;;
60873;SDS011;46715;40.642;-7.920;2023-12-04T08:29:04;9.20;;;3.00;;
60873;SDS011;46715;40.642;-7.920;2023-12-04T08:31:05;12.43;;;3.13;;
60873;SDS011;46715;40.642;-7.920;2023-12-04T08:33:08;11.43;;;3.22;;
60873;SDS011;46715;40.642;-7.920;2023-12-04T08:35:09;13.48;;;3.13;;
60873;SDS011;46715;40.642;-7.920;2023-12-04T08:37:10;13.98;;;2.85;;
60873;SDS011;46715;40.642;-7.920;2023-12-04T08:39:11;11.85;;;2.90;;
60873;SDS011;46715;40.642;-7.920;2023-12-04T08:41:12;13.97;;;3.33;;
60873;SDS011;46715;40.642;-7.920;2023-12-04T08:43:13;16.23;;;3.63;;
60873;SDS011;46715;40.642;-7.920;2023-12-04T08:45:13;15.37;;;3.43;;
60873;SDS011;46715;40.642;-7.920;2023-12-04T08:47:14;14.20;;;3.70;;
60873;SDS011;46715;40.642;-7.920;2023-12-04T08:49:15;12.40;;;3.33;;
60873;SDS011;46715;40.642;-7.920;2023-12-04T08:51:16;12.10;;;3.60;;
60873;SDS011;46715;40.642;-7.920;2023-12-04T08:53:17;11.93;;;2.95;;
60873;SDS011;46715;40.642;-7.920;2023-12-04T08:55:18;14.45;;;3.83;;
60873;SDS011;46715;40.642;-7.920;2023-12-04T08:57:19;16.80;;;3.57;;
60873;SDS011;46715;40.642;-7.920;2023-12-04T08:59:20;14.57;;;3.17;;
60873;SDS011;46715;40.642;-7.920;2023-12-04T09:01:21;11.30;;;3.03;;
60873;SDS011;46715;40.642;-7.920;2023-12-04T09:03:22;19.45;;;3.53;;
60873;SDS011;46715;40.642;-7.920;2023-12-04T09:05:24;19.95;;;4.00;;
60873;SDS011;46715;40.642;-7.920;2023-12-04T09:07:25;16.23;;;4.93;;
60873;SDS011;46715;40.642;-7.920;2023-12-04T09:09:25;15.13;;;4.90;;
60873;SDS011;46715;40.642;-7.920;2023-12-04T09:11:26;19.37;;;5.90;;
60873;SDS011;46715;40.642;-7.920;2023-12-04T09:13:27;20.07;;;6.50;;
60873;SDS011;46715;40.642;-7.920;2023-12-04T09:15:29;17.88;;;6.13;;
60873;SDS011;46715;40.642;-7.920;2023-12-04T09:17:30;20.43;;;5.17;;
60873;SDS011;46715;40.642;-7.920;2023-12-04T09:19:31;15.20;;;4.63;;
60873;SDS011;46715;40.642;-7.920;2023-12-04T09:21:32;24.67;;;5.82;;
60873;SDS011;46715;40.642;-7.920;2023-12-04T09:23:35;25.95;;;9.73;;
60873;SDS011;46715;40.642;-7.920;2023-12-04T09:25:36;24.63;;;8.98;;
60873;SDS011;46715;40.642;-7.920;2023-12-04T09:27:37;20.27;;;7.80;;
60873;SDS011;46715;40.642;-7.920;2023-12-04T09:29:37;22.43;;;7.80;;
60873;SDS011;46715;40.642;-7.920;2023-12-04T09:31:38;26.90;;;7.20;;
60873;SDS011;46715;40.642;-7.920;2023-12-04T09:33:39;19.03;;;6.63;;
60873;SDS011;46715;40.642;-7.920;2023-12-04T09:35:40;21.60;;;6.53;;
60873;SDS011;46715;40.642;-7.920;2023-12-04T09:37:40;26.50;;;7.63;;
60873;SDS011;46715;40.642;-7.920;2023-12-04T09:39:41;31.50;;;10.50;;
60873;SDS011;46715;40.642;-7.920;2023-12-04T09:41:43;34.30;;;10.27;;
60873;SDS011;46715;40.642;-7.920;2023-12-04T09:43:46;27.17;;;9.25;;
60873;SDS011;46715;40.642;-7.920;2023-12-04T09:45:47;25.08;;;8.40;;
60873;SDS011;46715;40.642;-7.920;2023-12-04T09:47:48;17.65;;;4.15;;
60873;SDS011;46715;40.642;-7.920;2023-12-04T09:49:50;21.42;;;4.07;;
60873;SDS011;46715;40.642;-7.920;2023-12-04T09:51:52;18.88;;;3.45;;
60873;SDS011;46715;40.642;-7.920;2023-12-04T09:53:53;14.57;;;3.58;;
60873;SDS011;46715;40.642;-7.920;2023-12-04T09:55:56;26.10;;;4.28;;
60873;SDS011;46715;40.642;-7.920;2023-12-04T09:57:59;17.95;;;3.88;;
60873;SDS011;46715;40.642;-7.920;2023-12-04T10:00:01;11.82;;;2.78;;
60873;SDS011;46715;40.642;-7.920;2023-12-04T10:02:11;11.88;;;3.03;;
60873;SDS011;46715;40.642;-7.920;2023-12-04T10:04:13;16.50;;;3.45;;
60873;SDS011;46715;40.642;-7.920;2023-12-04T10:06:15;17.48;;;3.63;;
60873;SDS011;46715;40.642;-7.920;2023-12-04T10:08:19;13.20;;;3.25;;
60873;SDS011;46715;40.642;-7.920;2023-12-04T10:10:20;13.47;;;3.50;;
60873;SDS011;46715;40.642;-7.920;2023-12-04T10:12:21;16.15;;;3.45;;
60873;SDS011;46715;40.642;-7.920;2023-12-04T10:14:22;15.77;;;3.70;;
60873;SDS011;46715;40.642;-7.920;2023-12-04T10:16:33;12.75;;;3.50;;
60873;SDS011;46715;40.642;-7.920;2023-12-04T10:18:35;15.93;;;3.33;;
60873;SDS011;46715;40.642;-7.920;2023-12-04T10:23:00;16.55;;;3.85;;
60873;SDS011;46715;40.642;-7.920;2023-12-04T10:25:23;20.20;;;3.35;;
60873;SDS011;46715;40.642;-7.920;2023-12-04T10:27:26;12.27;;;2.95;;
60873;SDS011;46715;40.642;-7.920;2023-12-04T10:29:28;16.52;;;3.72;;
60873;SDS011;46715;40.642;-7.920;2023-12-04T10:31:39;11.48;;;3.75;;
60873;SDS011;46715;40.642;-7.920;2023-12-04T10:33:40;12.10;;;3.50;;
60873;SDS011;46715;40.642;-7.920;2023-12-04T10:35:41;19.20;;;3.70;;
60873;SDS011;46715;40.642;-7.920;2023-12-04T10:37:43;13.48;;;3.92;;
60873;SDS011;46715;40.642;-7.920;2023-12-04T10:39:45;11.23;;;3.40;;
60873;SDS011;46715;40.642;-7.920;2023-12-04T10:41:58;13.15;;;3.08;;
60873;SDS011;46715;40.642;-7.920;2023-12-04T10:44:01;13.82;;;3.75;;
60873;SDS011;46715;40.642;-7.920;2023-12-04T10:46:01;15.80;;;3.80;;
60873;SDS011;46715;40.642;-7.920;2023-12-04T10:48:03;13.88;;;3.10;;
60873;SDS011;46715;40.642;-7.920;2023-12-04T10:50:07;10.73;;;3.10;;
60873;SDS011;46715;40.642;-7.920;2023-12-04T10:52:08;17.20;;;3.00;;
60873;SDS011;46715;40.642;-7.920;2023-12-04T10:54:09;13.77;;;3.65;;
60873;SDS011;46715;40.642;-7.920;2023-12-04T10:56:58;13.65;;;2.70;;
60873;SDS011;46715;40.642;-7.920;2023-12-04T10:58:40;21.05;;;3.53;;
60873;SDS011;46715;40.642;-7.920;2023-12-04T11:00:45;12.93;;;3.13;;
60873;SDS011;46715;40.642;-7.920;2023-12-04T11:02:48;15.98;;;3.88;;
60873;SDS011;46715;40.642;-7.920;2023-12-04T11:04:54;11.35;;;3.00;;
60873;SDS011;46715;40.642;-7.920;2023-12-04T11:07:03;12.95;;;3.10;;
60873;SDS011;46715;40.642;-7.920;2023-12-04T11:09:05;15.45;;;4.18;;
60873;SDS011;46715;40.642;-7.920;2023-12-04T11:11:34;18.55;;;4.35;;
60873;SDS011;46715;40.642;-7.920;2023-12-04T11:13:42;16.02;;;3.65;;
60873;SDS011;46715;40.642;-7.920;2023-12-04T11:15:48;13.48;;;3.13;;
60873;SDS011;46715;40.642;-7.920;2023-12-04T11:17:54;12.25;;;3.13;;
60873;SDS011;46715;40.642;-7.920;2023-12-04T11:20:13;17.13;;;3.20;;
60873;SDS011;46715;40.642;-7.920;2023-12-04T11:22:19;16.30;;;4.15;;
60873;SDS011;46715;40.642;-7.920;2023-12-04T11:24:22;11.48;;;3.00;;
60873;SDS011;46715;40.642;-7.920;2023-12-04T11:28:25;13.82;;;3.35;;
60873;SDS011;46715;40.642;-7.920;2023-12-04T11:30:28;11.38;;;3.28;;
60873;SDS011;46715;40.642;-7.920;2023-12-04T11:32:30;16.27;;;3.92;;
60873;SDS011;46715;40.642;-7.920;2023-12-04T11:34:31;16.80;;;3.60;;
60873;SDS011;46715;40.642;-7.920;2023-12-04T11:36:32;19.13;;;3.95;;
60873;SDS011;46715;40.642;-7.920;2023-12-04T11:38:34;12.00;;;3.53;;
60873;SDS011;46715;40.642;-7.920;2023-12-04T11:40:39;14.35;;;4.13;;
60873;SDS011;46715;40.642;-7.920;2023-12-04T11:42:42;11.95;;;4.13;;
60873;SDS011;46715;40.642;-7.920;2023-12-04T11:44:43;14.80;;;4.43;;
60873;SDS011;46715;40.642;-7.920;2023-12-04T11:47:03;14.33;;;5.53;;
60873;SDS011;46715;40.642;-7.920;2023-12-04T11:53:39;13.02;;;3.92;;
60873;SDS011;46715;40.642;-7.920;2023-12-04T11:55:40;13.80;;;3.17;;
60873;SDS011;46715;40.642;-7.920;2023-12-04T11:57:44;16.10;;;4.50;;
60873;SDS011;46715;40.642;-7.920;2023-12-04T11:59:47;14.10;;;3.90;;
60873;SDS011;46715;40.642;-7.920;2023-12-04T12:01:50;23.40;;;4.82;;
60873;SDS011;46715;40.642;-7.920;2023-12-04T12:03:53;13.65;;;3.72;;
60873;SDS011;46715;40.642;-7.920;2023-12-04T12:05:54;20.40;;;5.23;;
60873;SDS011;46715;40.642;-7.920;2023-12-04T12:07:55;13.47;;;3.87;;
60873;SDS011;46715;40.642;-7.920;2023-12-04T12:09:56;16.60;;;4.33;;
60873;SDS011;46715;40.642;-7.920;2023-12-04T12:11:59;15.48;;;3.85;;
60873;SDS011;46715;40.642;-7.920;2023-12-04T12:14:03;17.20;;;4.25;;
60873;SDS011;46715;40.642;-7.920;2023-12-04T12:16:07;13.60;;;4.00;;